Time;durP1;ratioP1;P1;durP2;ratioP2;P2;SDS_P1;SDS_P2;PMS_P1;PMS_P2;Temp;Humidity;BMP_temperature;BMP_pressure;BME280_temperature;BME280_humidity;BME280_pressure;Samples;Min_cycle;Max_cycle;Signal;HPM_P1;HPM_P2
2022/09/22 00:00:58;;;;;;;0.40;0.40;;;15.20;99.90;;;;;;5061015;28;20198;-48
2022/09/22 00:03:25;;;;;;;0.53;0.53;;;15.10;99.90;;;;;;5066085;28;20592;-51
2022/09/22 00:06:00;;;;;;;0.70;0.60;;;15.10;99.90;;;;;;5065081;28;20193;-51
2022/09/22 00:08:31;;;;;;;0.70;0.70;;;15.10;99.90;;;;;;5063363;28;20219;-48
2022/09/22 00:11:02;;;;;;;0.53;0.53;;;15.00;99.90;;;;;;5058484;28;20228;-49
2022/09/22 00:13:30;;;;;;;0.67;0.67;;;15.00;99.90;;;;;;5060440;28;20223;-51
2022/09/22 00:15:58;;;;;;;0.73;0.73;;;15.00;99.90;;;;;;5066093;28;20627;-47
2022/09/22 00:18:25;;;;;;;1.37;0.60;;;15.00;99.90;;;;;;5065846;28;20201;-51
2022/09/22 00:20:52;;;;;;;0.70;0.70;;;15.00;99.90;;;;;;5059876;28;20275;-49
2022/09/22 00:23:19;;;;;;;0.57;0.57;;;15.00;99.90;;;;;;5062505;28;20201;-50
2022/09/22 00:25:47;;;;;;;4.27;0.80;;;15.00;99.90;;;;;;5065794;28;20280;-49
2022/09/22 00:28:14;;;;;;;0.70;0.70;;;15.10;99.90;;;;;;5069937;28;20182;-50
2022/09/22 00:30:42;;;;;;;1.20;0.80;;;15.10;99.90;;;;;;5070021;28;20205;-53
2022/09/22 00:33:10;;;;;;;0.60;0.60;;;15.10;99.90;;;;;;5065369;28;20247;-52
2022/09/22 00:35:37;;;;;;;0.60;0.60;;;15.10;99.90;;;;;;5072304;28;20296;-51
2022/09/22 00:38:06;;;;;;;1.50;0.60;;;15.10;99.90;;;;;;5066029;28;20665;-51
2022/09/22 00:40:34;;;;;;;0.60;0.60;;;15.10;99.90;;;;;;5068045;28;20276;-54
2022/09/22 00:43:17;;;;;;;0.57;0.53;;;15.10;99.90;;;;;;5068627;28;20204;-51
2022/09/22 00:45:47;;;;;;;0.53;0.53;;;15.20;99.90;;;;;;5069484;28;20189;-51
2022/09/22 00:48:15;;;;;;;0.60;0.57;;;15.20;99.90;;;;;;5067572;28;20232;-54
2022/09/22 00:50:42;;;;;;;0.50;0.50;;;15.10;99.90;;;;;;5066987;28;20665;-51
2022/09/22 00:53:12;;;;;;;0.60;0.60;;;15.10;99.90;;;;;;5067174;28;20624;-52
2022/09/22 00:55:45;;;;;;;0.50;0.50;;;15.10;99.90;;;;;;5067888;28;20262;-53
2022/09/22 00:58:15;;;;;;;0.60;0.60;;;15.10;99.90;;;;;;5066974;28;20723;-50
2022/09/22 01:00:43;;;;;;;0.50;0.50;;;15.00;99.90;;;;;;5067677;28;20612;-48
2022/09/22 01:03:13;;;;;;;0.93;0.63;;;15.00;99.90;;;;;;5069405;28;20200;-48
2022/09/22 01:05:42;;;;;;;0.40;0.40;;;15.10;99.90;;;;;;5067674;28;20193;-51
2022/09/22 01:08:11;;;;;;;0.50;0.50;;;15.10;99.90;;;;;;5069980;28;20189;-48
2022/09/22 01:10:39;;;;;;;0.40;0.40;;;15.00;99.90;;;;;;5067009;28;20280;-53
2022/09/22 01:13:19;;;;;;;0.40;0.40;;;15.10;99.90;;;;;;5069656;28;20217;-53
2022/09/22 01:15:54;;;;;;;0.40;0.40;;;15.10;99.90;;;;;;5069224;28;20272;-51
2022/09/22 01:18:29;;;;;;;1.47;0.70;;;15.10;99.90;;;;;;5064736;28;20189;-50
2022/09/22 01:21:20;;;;;;;0.40;0.40;;;15.20;99.90;;;;;;5067978;28;20694;-51
2022/09/22 01:24:23;;;;;;;0.60;0.60;;;15.20;99.90;;;;;;5063327;28;20284;-54
2022/09/22 01:27:16;;;;;;;0.60;0.60;;;15.10;99.90;;;;;;5068384;28;20247;-51
2022/09/22 01:30:16;;;;;;;0.50;0.50;;;15.20;99.90;;;;;;5068260;28;20326;-53
2022/09/22 01:32:56;;;;;;;0.50;0.50;;;15.20;99.90;;;;;;5067263;28;20240;-53
2022/09/22 01:35:30;;;;;;;0.40;0.40;;;15.10;99.90;;;;;;5063848;28;20300;-51
2022/09/22 01:38:06;;;;;;;0.67;0.50;;;15.00;99.90;;;;;;5066028;28;20624;-50
2022/09/22 01:40:41;;;;;;;0.50;0.50;;;15.00;99.90;;;;;;5063114;28;20272;-54
2022/09/22 01:43:15;;;;;;;0.40;0.40;;;15.00;99.90;;;;;;5069436;28;20196;-53
2022/09/22 01:45:47;;;;;;;0.40;0.40;;;15.10;99.90;;;;;;5064722;28;20846;-48
2022/09/22 01:48:19;;;;;;;0.40;0.40;;;15.10;99.90;;;;;;5065149;28;20745;-53
2022/09/22 01:50:52;;;;;;;0.50;0.50;;;15.00;99.90;;;;;;5066138;28;20296;-51
2022/09/22 01:53:23;;;;;;;1.00;0.47;;;15.00;99.90;;;;;;5061163;28;20312;-50
2022/09/22 01:55:53;;;;;;;0.50;0.50;;;15.00;99.90;;;;;;5063013;28;20202;-52
2022/09/22 01:58:26;;;;;;;0.50;0.50;;;15.00;99.90;;;;;;5063177;28;20216;-49
2022/09/22 02:00:59;;;;;;;0.50;0.50;;;15.00;99.90;;;;;;5064445;28;20280;-53
2022/09/22 02:03:35;;;;;;;0.50;0.50;;;15.00;99.90;;;;;;5065561;28;20197;-52
2022/09/22 02:06:08;;;;;;;0.50;0.50;;;15.00;99.90;;;;;;5065526;28;20216;-49
2022/09/22 02:08:38;;;;;;;0.60;0.60;;;15.00;99.90;;;;;;5064818;28;20292;-54
2022/09/22 02:11:11;;;;;;;0.50;0.50;;;14.90;99.90;;;;;;5061298;28;20198;-45
2022/09/22 02:13:38;;;;;;;0.80;0.50;;;14.90;99.90;;;;;;5066659;28;20238;-52
2022/09/22 02:16:08;;;;;;;0.50;0.50;;;15.00;99.90;;;;;;5068039;28;20192;-54
2022/09/22 02:18:41;;;;;;;0.67;0.50;;;14.90;99.90;;;;;;5070545;28;20189;-49
2022/09/22 02:21:10;;;;;;;0.40;0.40;;;15.00;99.90;;;;;;5064839;28;20201;-51
2022/09/22 02:23:37;;;;;;;0.60;0.60;;;15.00;99.90;;;;;;5068146;28;20243;-53
2022/09/22 02:26:05;;;;;;;0.93;0.70;;;15.00;99.90;;;;;;5066484;28;20197;-51
2022/09/22 02:28:34;;;;;;;0.70;0.70;;;15.00;99.90;;;;;;5068354;28;20657;-51
2022/09/22 02:31:05;;;;;;;0.60;0.60;;;14.90;99.90;;;;;;5069103;28;20224;-53
2022/09/22 02:33:36;;;;;;;0.70;0.70;;;14.90;99.90;;;;;;5068894;28;20261;-52
2022/09/22 02:36:15;;;;;;;0.70;0.70;;;15.00;99.90;;;;;;5070285;28;20292;-54
2022/09/22 02:38:49;;;;;;;0.67;0.50;;;15.00;99.90;;;;;;5065029;28;20193;-52
2022/09/22 02:41:23;;;;;;;0.73;0.60;;;15.00;99.90;;;;;;5067137;28;20287;-51
2022/09/22 02:43:54;;;;;;;0.53;0.53;;;15.00;99.90;;;;;;5067057;28;20673;-52
2022/09/22 02:46:26;;;;;;;0.40;0.40;;;15.00;99.90;;;;;;5066948;28;20198;-54
2022/09/22 02:48:59;;;;;;;0.67;0.67;;;15.10;99.90;;;;;;5067465;28;20193;-51
2022/09/22 02:51:27;;;;;;;0.60;0.50;;;15.10;99.90;;;;;;5066425;28;20189;-53
2022/09/22 02:53:54;;;;;;;1.37;0.67;;;15.00;99.90;;;;;;5064489;28;20197;-51
2022/09/22 02:56:21;;;;;;;0.50;0.47;;;15.10;99.90;;;;;;5064369;28;20205;-54
2022/09/22 02:58:48;;;;;;;0.40;0.40;;;15.10;99.90;;;;;;5066188;28;20284;-51
2022/09/22 03:01:15;;;;;;;0.40;0.40;;;15.10;99.90;;;;;;5065930;28;20202;-54
2022/09/22 03:03:42;;;;;;;0.40;0.40;;;15.00;99.90;;;;;;5067213;28;20280;-51
2022/09/22 03:06:10;;;;;;;0.43;0.43;;;15.00;99.90;;;;;;5062805;28;20629;-51
2022/09/22 03:08:37;;;;;;;0.80;0.60;;;14.90;99.90;;;;;;5066389;28;20276;-49
2022/09/22 03:11:05;;;;;;;0.50;0.50;;;15.00;99.90;;;;;;5066021;28;20228;-51
2022/09/22 03:13:32;;;;;;;0.50;0.50;;;15.00;99.90;;;;;;5066076;28;20232;-47
2022/09/22 03:15:59;;;;;;;0.50;0.50;;;15.00;99.90;;;;;;5065274;28;20230;-53
2022/09/22 03:18:26;;;;;;;0.43;0.43;;;15.00;99.90;;;;;;5068394;28;20190;-53
2022/09/22 03:20:53;;;;;;;0.43;0.43;;;15.00;99.90;;;;;;5064294;28;20285;-54
2022/09/22 03:23:21;;;;;;;0.50;0.50;;;15.00;99.90;;;;;;5064832;28;20652;-51
2022/09/22 03:25:48;;;;;;;0.40;0.40;;;15.00;99.90;;;;;;5065002;28;20227;-48
2022/09/22 03:28:15;;;;;;;0.40;0.40;;;14.90;99.90;;;;;;5068383;28;20292;-47
2022/09/22 03:30:42;;;;;;;0.50;0.50;;;15.00;99.90;;;;;;5067820;28;20207;-51
2022/09/22 03:33:09;;;;;;;0.43;0.43;;;14.90;99.90;;;;;;5064916;28;20692;-48
2022/09/22 03:35:36;;;;;;;0.43;0.43;;;15.00;99.90;;;;;;5065380;28;20217;-51
2022/09/22 03:38:03;;;;;;;0.40;0.40;;;14.90;99.90;;;;;;5068415;28;20216;-52
2022/09/22 03:40:32;;;;;;;0.40;0.40;;;15.00;99.90;;;;;;5062565;28;20704;-51
2022/09/22 03:42:59;;;;;;;0.73;0.57;;;15.00;99.90;;;;;;5067271;28;20275;-51
2022/09/22 03:45:26;;;;;;;0.57;0.57;;;15.00;99.90;;;;;;5066993;28;20189;-51
2022/09/22 03:47:54;;;;;;;0.40;0.40;;;15.00;99.90;;;;;;5065756;28;20204;-54
2022/09/22 03:50:21;;;;;;;0.60;0.60;;;15.00;99.90;;;;;;5065986;28;20200;-53
2022/09/22 03:52:48;;;;;;;0.50;0.50;;;15.00;99.90;;;;;;5067015;28;20722;-52
2022/09/22 03:55:15;;;;;;;0.50;0.50;;;15.00;99.90;;;;;;5064562;28;20601;-51
2022/09/22 03:57:43;;;;;;;0.40;0.40;;;15.00;99.90;;;;;;5066098;28;20276;-53
2022/09/22 04:00:12;;;;;;;0.50;0.50;;;15.00;99.90;;;;;;5064832;28;20538;-51
2022/09/22 04:02:40;;;;;;;0.30;0.30;;;15.00;99.90;;;;;;5065860;28;20212;-48
2022/09/22 04:05:08;;;;;;;0.90;0.80;;;15.00;99.90;;;;;;5065733;28;20601;-54
2022/09/22 04:07:35;;;;;;;0.40;0.40;;;14.90;99.90;;;;;;5067522;28;20275;-55
2022/09/22 04:10:02;;;;;;;0.50;0.50;;;14.90;99.90;;;;;;5063760;28;20270;-54
2022/09/22 04:12:29;;;;;;;0.60;0.60;;;14.90;99.90;;;;;;5062968;28;20247;-54
2022/09/22 04:14:58;;;;;;;0.60;0.57;;;14.90;99.90;;;;;;5063865;28;20289;-55
2022/09/22 04:17:25;;;;;;;0.63;0.60;;;14.80;99.90;;;;;;5061816;28;20196;-54
2022/09/22 04:19:54;;;;;;;0.93;0.80;;;14.80;99.90;;;;;;5064543;28;20193;-52
2022/09/22 04:22:21;;;;;;;0.60;0.60;;;14.80;99.90;;;;;;5064146;28;20575;-52
2022/09/22 04:24:48;;;;;;;0.50;0.50;;;14.80;99.90;;;;;;5062122;28;20713;-51
2022/09/22 04:27:15;;;;;;;0.57;0.57;;;14.80;99.90;;;;;;5065875;28;20186;-52
2022/09/22 04:29:42;;;;;;;0.50;0.50;;;14.80;99.90;;;;;;5067794;28;20202;-54
2022/09/22 04:32:10;;;;;;;0.50;0.50;;;14.80;99.90;;;;;;5065986;28;20630;-52
2022/09/22 04:34:38;;;;;;;0.53;0.53;;;14.80;99.90;;;;;;5064545;28;20341;-55
2022/09/22 04:37:05;;;;;;;0.60;0.60;;;14.80;99.90;;;;;;5064908;28;20287;-52
2022/09/22 04:39:32;;;;;;;0.50;0.50;;;14.80;99.90;;;;;;5065737;28;20637;-52
2022/09/22 04:41:59;;;;;;;0.40;0.40;;;14.80;99.90;;;;;;5065528;28;20216;-53
2022/09/22 04:44:26;;;;;;;0.50;0.50;;;14.80;99.90;;;;;;5065569;28;20583;-55
2022/09/22 04:46:54;;;;;;;1.33;0.57;;;14.80;99.90;;;;;;5064084;28;20230;-54
2022/09/22 04:49:23;;;;;;;0.60;0.60;;;14.80;99.90;;;;;;5066356;28;20189;-54
2022/09/22 04:51:50;;;;;;;0.50;0.50;;;14.80;99.90;;;;;;5061345;28;20224;-54
2022/09/22 04:54:17;;;;;;;1.13;0.60;;;14.80;99.90;;;;;;5066468;28;20293;-53
2022/09/22 04:56:44;;;;;;;0.80;0.80;;;14.70;99.90;;;;;;5062518;28;20228;-54
2022/09/22 04:59:11;;;;;;;0.60;0.60;;;14.80;99.90;;;;;;5063366;28;20197;-53
2022/09/22 05:01:38;;;;;;;0.40;0.40;;;14.70;99.90;;;;;;5063190;28;20206;-55
2022/09/22 05:04:06;;;;;;;2.47;0.60;;;14.70;99.90;;;;;;5067156;28;20243;-55
2022/09/22 05:06:34;;;;;;;0.50;0.50;;;14.70;99.90;;;;;;5063273;28;20208;-54
2022/09/22 05:09:02;;;;;;;0.50;0.50;;;14.70;99.90;;;;;;5065292;28;20209;-56
2022/09/22 05:11:29;;;;;;;0.50;0.50;;;14.70;99.90;;;;;;5063866;28;20389;-55
2022/09/22 05:13:57;;;;;;;1.50;0.77;;;14.70;99.90;;;;;;5070156;28;20213;-51
2022/09/22 05:16:24;;;;;;;0.50;0.50;;;14.60;99.90;;;;;;5065759;28;20204;-53
2022/09/22 05:18:51;;;;;;;0.57;0.57;;;14.60;99.90;;;;;;5070607;28;20645;-53
2022/09/22 05:21:19;;;;;;;0.60;0.60;;;14.60;99.90;;;;;;5066255;28;20201;-55
2022/09/22 05:23:47;;;;;;;0.80;0.80;;;14.60;99.90;;;;;;5069628;28;20192;-55
2022/09/22 05:26:14;;;;;;;0.77;0.77;;;14.60;99.90;;;;;;5063378;28;20215;-55
2022/09/22 05:28:41;;;;;;;0.80;0.80;;;14.60;99.90;;;;;;5068778;28;20200;-56
2022/09/22 05:31:08;;;;;;;0.53;0.53;;;14.60;99.90;;;;;;5069147;28;20223;-55
2022/09/22 05:33:35;;;;;;;4.00;0.93;;;14.60;99.90;;;;;;5068149;28;20439;-52
2022/09/22 05:36:03;;;;;;;1.10;0.90;;;14.60;99.90;;;;;;5067347;28;20250;-52
2022/09/22 05:38:30;;;;;;;0.87;0.87;;;14.60;99.90;;;;;;5069168;28;20201;-54
2022/09/22 05:40:58;;;;;;;0.60;0.60;;;14.60;99.90;;;;;;5069390;28;20217;-53
2022/09/22 05:43:25;;;;;;;1.40;0.70;;;14.60;99.90;;;;;;5065991;28;20641;-55
2022/09/22 05:45:52;;;;;;;0.60;0.60;;;14.60;99.90;;;;;;5068450;28;20224;-51
2022/09/22 05:48:19;;;;;;;1.17;0.80;;;14.60;99.90;;;;;;5068894;28;21074;-55
2022/09/22 05:50:46;;;;;;;0.83;0.70;;;14.70;99.90;;;;;;5067815;28;20656;-54
2022/09/22 05:53:14;;;;;;;0.70;0.70;;;14.70;99.90;;;;;;5065873;28;20304;-54
2022/09/22 05:55:41;;;;;;;1.17;0.67;;;14.70;99.90;;;;;;5066997;28;20200;-54
2022/09/22 05:58:11;;;;;;;0.60;0.60;;;14.70;99.90;;;;;;5067769;28;20194;-54
2022/09/22 06:00:39;;;;;;;0.53;0.50;;;14.80;99.90;;;;;;5068015;28;20226;-55
2022/09/22 06:03:06;;;;;;;0.60;0.60;;;14.80;99.90;;;;;;5065952;28;20247;-53
2022/09/22 06:05:33;;;;;;;0.60;0.60;;;14.90;99.90;;;;;;5066848;28;20189;-54
2022/09/22 06:08:02;;;;;;;0.67;0.67;;;14.90;99.90;;;;;;5066809;28;20280;-55
2022/09/22 06:10:30;;;;;;;0.70;0.70;;;14.90;99.90;;;;;;5067159;28;20224;-51
2022/09/22 06:13:00;;;;;;;0.80;0.70;;;14.90;99.90;;;;;;5054872;28;20236;-55
2022/09/22 06:15:30;;;;;;;0.60;0.60;;;14.90;99.90;;;;;;5065701;28;20284;-55
2022/09/22 06:17:57;;;;;;;0.60;0.60;;;14.90;99.90;;;;;;5050804;28;20213;-53
2022/09/22 06:20:24;;;;;;;0.57;0.57;;;15.00;99.90;;;;;;5055441;28;20220;-55
2022/09/22 06:22:51;;;;;;;0.60;0.60;;;15.00;99.90;;;;;;5063688;28;20201;-55
2022/09/22 06:25:18;;;;;;;0.70;0.70;;;15.00;99.90;;;;;;5062305;28;20194;-56
2022/09/22 06:27:45;;;;;;;0.50;0.50;;;15.00;99.90;;;;;;5065397;28;20193;-56
2022/09/22 06:30:13;;;;;;;2.20;0.60;;;15.10;99.90;;;;;;5066198;28;20189;-53
2022/09/22 06:32:44;;;;;;;0.67;0.67;;;15.10;99.90;;;;;;5062724;28;20569;-56
2022/09/22 06:35:11;;;;;;;0.60;0.60;;;15.10;99.90;;;;;;5062213;28;20197;-55
2022/09/22 06:37:39;;;;;;;1.70;0.70;;;15.10;99.90;;;;;;5067479;28;20189;-49
2022/09/22 06:40:08;;;;;;;0.50;0.50;;;15.10;99.90;;;;;;5065152;28;20267;-55
2022/09/22 06:42:35;;;;;;;1.90;0.60;;;15.20;99.90;;;;;;5062108;28;20533;-54
2022/09/22 06:45:03;;;;;;;0.97;0.50;;;15.20;99.90;;;;;;5092911;28;20237;-57
2022/09/22 06:47:32;;;;;;;0.50;0.50;;;15.20;99.90;;;;;;5060915;28;20282;-54
2022/09/22 06:50:04;;;;;;;0.40;0.40;;;15.20;99.90;;;;;;5064762;28;20209;-55
2022/09/22 06:52:31;;;;;;;0.50;0.50;;;15.20;99.90;;;;;;5068089;28;20246;-55
2022/09/22 06:55:00;;;;;;;0.60;0.60;;;15.20;99.90;;;;;;5058997;28;20294;-54
2022/09/22 06:57:29;;;;;;;0.50;0.50;;;15.20;99.90;;;;;;5061948;28;20506;-55
2022/09/22 06:59:56;;;;;;;0.50;0.50;;;15.20;99.90;;;;;;5060195;28;20198;-55
2022/09/22 07:02:28;;;;;;;0.50;0.50;;;15.30;99.90;;;;;;5062844;28;20612;-55
2022/09/22 07:04:57;;;;;;;0.47;0.47;;;15.30;99.90;;;;;;5058289;28;20602;-53
2022/09/22 07:07:27;;;;;;;0.30;0.30;;;15.30;99.90;;;;;;5065468;28;20651;-57
2022/09/22 07:09:55;;;;;;;0.70;0.70;;;15.40;99.90;;;;;;5063223;28;20198;-54
2022/09/22 07:12:22;;;;;;;0.50;0.50;;;15.40;99.90;;;;;;5061595;28;20649;-53
2022/09/22 07:14:50;;;;;;;0.60;0.60;;;15.40;99.90;;;;;;5061981;28;20244;-53
2022/09/22 07:17:17;;;;;;;0.73;0.73;;;15.50;99.90;;;;;;5063548;28;20673;-55
2022/09/22 07:19:45;;;;;;;0.70;0.70;;;15.60;99.90;;;;;;5058956;28;20205;-54
2022/09/22 07:22:14;;;;;;;0.50;0.50;;;15.60;99.90;;;;;;5064690;28;20268;-54
2022/09/22 07:24:43;;;;;;;0.70;0.70;;;15.70;99.90;;;;;;5062183;28;20707;-54
2022/09/22 07:27:11;;;;;;;0.53;0.53;;;15.80;99.90;;;;;;5066650;28;20278;-52
2022/09/22 07:29:39;;;;;;;0.50;0.50;;;15.80;99.90;;;;;;5063476;28;20388;-55
2022/09/22 07:32:06;;;;;;;0.50;0.50;;;15.80;99.90;;;;;;5064138;28;20284;-54
2022/09/22 07:34:33;;;;;;;0.60;0.60;;;15.90;99.90;;;;;;5066518;28;20196;-55
2022/09/22 07:37:01;;;;;;;0.53;0.53;;;15.90;99.90;;;;;;5062820;28;20223;-54
2022/09/22 07:39:28;;;;;;;0.40;0.40;;;15.80;99.90;;;;;;5059992;28;20215;-55
2022/09/22 07:41:57;;;;;;;0.57;0.57;;;15.80;99.90;;;;;;5063421;28;20197;-52
2022/09/22 07:47:08;;;;;;;0.30;0.30;;;15.80;99.90;;;;;;5063543;28;20194;-53
2022/09/22 07:49:35;;;;;;;0.60;0.60;;;15.80;99.90;;;;;;5061197;28;20268;-55
2022/09/22 07:52:02;;;;;;;0.47;0.47;;;15.80;99.90;;;;;;5065528;28;20203;-55
2022/09/22 07:54:32;;;;;;;0.50;0.50;;;15.80;99.90;;;;;;5062840;28;20228;-53
2022/09/22 07:57:07;;;;;;;0.40;0.40;;;15.90;99.90;;;;;;5064209;28;20265;-53
2022/09/22 07:59:34;;;;;;;0.50;0.50;;;16.00;99.90;;;;;;5061174;28;20200;-52
2022/09/22 08:02:02;;;;;;;0.50;0.50;;;16.10;99.90;;;;;;5061960;28;20197;-53
2022/09/22 08:04:30;;;;;;;0.57;0.57;;;16.50;99.90;;;;;;5062705;28;20194;-53
2022/09/22 08:06:57;;;;;;;0.50;0.50;;;17.00;99.90;;;;;;5062023;28;20264;-54
2022/09/22 08:09:25;;;;;;;0.60;0.60;;;17.60;99.90;;;;;;5064161;28;20245;-55
2022/09/22 08:11:53;;;;;;;0.70;0.70;;;18.10;99.90;;;;;;5065848;28;20258;-55
2022/09/22 08:14:22;;;;;;;0.70;0.70;;;18.30;99.90;;;;;;5061561;28;20687;-53
2022/09/22 08:16:50;;;;;;;0.50;0.50;;;18.30;99.90;;;;;;5059334;28;20288;-55
2022/09/22 08:19:18;;;;;;;0.52;0.52;;;18.20;99.90;;;;;;5066575;28;20200;-54
2022/09/22 08:21:46;;;;;;;0.73;0.73;;;18.00;99.90;;;;;;5064630;28;20516;-52
2022/09/22 08:24:14;;;;;;;0.70;0.70;;;17.90;99.90;;;;;;5066423;28;20189;-54
2022/09/22 08:26:43;;;;;;;0.70;0.70;;;17.70;99.90;;;;;;5060494;28;20207;-54
2022/09/22 08:29:10;;;;;;;0.60;0.60;;;17.60;99.90;;;;;;5063357;28;20254;-54
2022/09/22 08:31:41;;;;;;;0.85;0.60;;;17.50;99.90;;;;;;5060537;28;20281;-54
2022/09/22 08:34:09;;;;;;;0.60;0.60;;;17.30;99.90;;;;;;5064439;28;20232;-54
2022/09/22 08:36:37;;;;;;;0.63;0.63;;;17.20;99.90;;;;;;5063174;28;20201;-52
2022/09/22 08:39:05;;;;;;;0.60;0.60;;;17.10;99.90;;;;;;5064984;28;20193;-51
2022/09/22 08:41:40;;;;;;;0.77;0.77;;;17.00;99.90;;;;;;5064437;28;20305;-54
2022/09/22 08:44:18;;;;;;;0.60;0.60;;;16.90;99.90;;;;;;5064145;28;20679;-54
2022/09/22 08:46:47;;;;;;;1.45;0.68;;;16.70;99.90;;;;;;5064100;28;20268;-53
2022/09/22 08:52:14;;;;;;;0.60;0.60;;;16.60;99.90;;;;;;5065062;28;20191;-55
2022/09/22 08:54:43;;;;;;;0.80;0.80;;;16.50;99.90;;;;;;5061115;28;20241;-54
2022/09/22 08:57:26;;;;;;;0.60;0.60;;;16.50;99.90;;;;;;5063456;28;20213;-53
2022/09/22 09:00:02;;;;;;;0.70;0.70;;;16.40;99.90;;;;;;5058085;28;20742;-55
2022/09/22 09:02:41;;;;;;;0.60;0.60;;;16.40;99.90;;;;;;5063418;28;20283;-55
2022/09/22 09:05:44;;;;;;;0.67;0.67;;;16.40;99.90;;;;;;5065434;28;20188;-53
2022/09/22 09:08:33;;;;;;;0.80;0.80;;;16.40;99.90;;;;;;5064519;28;20200;-52
2022/09/22 09:11:13;;;;;;;0.60;0.60;;;16.30;99.90;;;;;;5067201;28;20322;-55
2022/09/22 09:13:55;;;;;;;0.50;0.50;;;16.40;99.90;;;;;;5066809;28;20230;-52
2022/09/22 09:16:39;;;;;;;0.40;0.40;;;16.30;99.90;;;;;;5063342;28;20244;-50
2022/09/22 09:19:15;;;;;;;0.75;0.75;;;16.30;99.90;;;;;;5070146;28;20188;-51
2022/09/22 09:21:49;;;;;;;0.70;0.70;;;16.30;99.90;;;;;;5071244;28;20193;-52
2022/09/22 09:24:25;;;;;;;1.47;0.70;;;16.30;99.90;;;;;;5062420;28;20214;-48
2022/09/22 09:26:52;;;;;;;0.77;0.60;;;16.20;99.90;;;;;;5066136;28;20197;-49
2022/09/22 09:29:23;;;;;;;0.73;0.70;;;16.20;99.90;;;;;;5069656;28;20711;-50
2022/09/22 09:31:53;;;;;;;0.53;0.50;;;16.30;99.90;;;;;;5065873;28;20218;-51
2022/09/22 09:34:25;;;;;;;0.83;0.83;;;16.30;99.90;;;;;;5069220;28;20310;-52
2022/09/22 09:37:06;;;;;;;0.70;0.70;;;16.30;99.90;;;;;;5062965;28;20673;-54
2022/09/22 09:39:36;;;;;;;0.80;0.80;;;16.40;99.90;;;;;;5066571;28;20603;-54
2022/09/22 09:42:16;;;;;;;0.73;0.73;;;16.60;99.90;;;;;;5065190;28;20258;-53
2022/09/22 09:44:45;;;;;;;0.70;0.57;;;17.00;99.90;;;;;;5063948;28;20187;-50
2022/09/22 09:47:20;;;;;;;3.40;0.80;;;17.10;99.90;;;;;;5066637;28;20534;-52
2022/09/22 09:49:50;;;;;;;0.50;0.50;;;17.10;99.90;;;;;;5065531;28;20198;-52
2022/09/22 09:52:18;;;;;;;0.50;0.50;;;17.10;99.90;;;;;;5065501;28;20237;-53
2022/09/22 09:54:46;;;;;;;0.43;0.43;;;17.20;99.90;;;;;;5064282;28;20204;-53
2022/09/22 09:57:14;;;;;;;0.85;0.50;;;17.20;99.90;;;;;;5064418;28;20272;-53
2022/09/22 10:02:29;;;;;;;0.32;0.32;;;17.20;99.90;;;;;;5063414;28;20200;-51
2022/09/22 10:05:01;;;;;;;0.60;0.50;;;17.20;99.90;;;;;;5064740;28;20195;-53
2022/09/22 10:07:30;;;;;;;0.45;0.45;;;17.20;99.90;;;;;;5064817;28;20675;-52
2022/09/22 10:10:30;;;;;;;0.60;0.60;;;17.50;99.90;;;;;;5064306;28;20200;-55
2022/09/22 10:13:19;;;;;;;0.50;0.50;;;18.50;99.90;;;;;;5063559;28;20517;-55
2022/09/22 10:16:17;;;;;;;0.50;0.50;;;19.00;99.90;;;;;;5063320;28;20276;-53
2022/09/22 10:18:45;;;;;;;0.57;0.57;;;19.20;99.90;;;;;;5064588;28;20632;-54
2022/09/22 10:21:16;;;;;;;0.50;0.50;;;19.60;99.90;;;;;;5065171;28;20260;-54
2022/09/22 10:23:44;;;;;;;4.45;0.50;;;19.60;99.90;;;;;;5064861;28;20272;-55
2022/09/22 10:26:20;;;;;;;0.57;0.57;;;19.40;99.90;;;;;;5064972;28;20198;-55
2022/09/22 10:29:17;;;;;;;0.50;0.50;;;19.20;99.90;;;;;;5065833;28;20304;-55
2022/09/22 10:32:05;;;;;;;0.40;0.40;;;18.90;99.90;;;;;;5063540;28;20282;-54
2022/09/22 10:34:34;;;;;;;0.50;0.50;;;18.70;99.90;;;;;;5065047;28;20645;-54
2022/09/22 10:37:09;;;;;;;0.40;0.40;;;18.60;99.90;;;;;;5067015;28;20478;-55
2022/09/22 10:39:43;;;;;;;0.43;0.43;;;18.70;99.90;;;;;;5063989;28;20564;-53
2022/09/22 10:42:22;;;;;;;0.40;0.40;;;18.80;99.90;;;;;;5095825;28;20196;-49
2022/09/22 10:44:50;;;;;;;1.55;0.50;;;18.80;99.90;;;;;;5066904;28;20271;-48
2022/09/22 10:47:31;;;;;;;0.50;0.50;;;18.80;99.90;;;;;;5060786;28;20203;-55
2022/09/22 10:50:31;;;;;;;2.05;0.68;;;18.80;99.90;;;;;;5064465;28;20189;-53
2022/09/22 10:53:07;;;;;;;0.40;0.40;;;18.80;99.90;;;;;;5032594;28;20240;-52
2022/09/22 10:55:36;;;;;;;0.70;0.70;;;18.80;99.90;;;;;;5064409;28;20224;-54
2022/09/22 10:58:26;;;;;;;0.50;0.50;;;18.70;99.90;;;;;;5061091;28;20243;-52
2022/09/22 11:01:01;;;;;;;0.43;0.43;;;18.60;99.90;;;;;;5062810;28;20568;-55
2022/09/22 11:03:58;;;;;;;0.60;0.60;;;18.40;99.90;;;;;;5062805;28;20204;-55
2022/09/22 11:12:33;;;;;;;0.77;0.77;;;18.10;99.90;;;;;;5063122;28;20196;-52
2022/09/22 11:15:09;;;;;;;0.52;0.52;;;17.90;99.90;;;;;;5059127;28;20209;-49
2022/09/22 11:18:11;;;;;;;0.50;0.50;;;17.90;99.90;;;;;;5061679;28;20197;-55
2022/09/22 11:20:41;;;;;;;1.83;0.40;;;17.80;99.90;;;;;;5066980;28;20286;-55
2022/09/22 11:23:39;;;;;;;0.40;0.40;;;17.80;99.90;;;;;;5066712;28;20193;-55
2022/09/22 11:26:35;;;;;;;0.60;0.60;;;17.80;99.90;;;;;;5067018;28;20251;-52
2022/09/22 11:29:43;;;;;;;0.65;0.50;;;17.80;99.90;;;;;;5064151;28;20213;-54
2022/09/22 11:32:29;;;;;;;0.50;0.50;;;17.80;99.90;;;;;;5061978;28;20204;-55
2022/09/22 11:35:24;;;;;;;0.65;0.55;;;18.00;99.90;;;;;;5057244;28;20717;-55
2022/09/22 11:38:08;;;;;;;0.40;0.40;;;18.30;99.90;;;;;;5056071;28;20291;-55
2022/09/22 11:40:55;;;;;;;0.50;0.50;;;18.30;99.90;;;;;;5059452;28;20185;-55
2022/09/22 11:43:57;;;;;;;0.47;0.40;;;18.30;99.90;;;;;;5061833;28;20197;-55
2022/09/22 11:46:38;;;;;;;0.40;0.40;;;18.30;99.90;;;;;;5059015;28;20304;-54
2022/09/22 11:49:16;;;;;;;0.40;0.40;;;18.40;99.80;;;;;;5065582;28;20371;-52
2022/09/22 11:51:55;;;;;;;0.40;0.40;;;18.40;99.60;;;;;;5064600;28;20675;-55
2022/09/22 11:54:44;;;;;;;0.40;0.40;;;18.40;99.50;;;;;;5060976;28;20774;-53
2022/09/22 11:57:14;;;;;;;0.47;0.47;;;18.50;99.30;;;;;;5060366;28;20279;-55
2022/09/22 11:59:50;;;;;;;1.65;0.80;;;18.70;99.20;;;;;;5058704;28;20228;-54
2022/09/22 12:02:25;;;;;;;0.40;0.40;;;19.40;99.00;;;;;;5058997;28;20200;-55
2022/09/22 12:04:58;;;;;;;2.25;0.52;;;20.00;98.20;;;;;;5061128;28;20581;-55
2022/09/22 12:07:29;;;;;;;0.55;0.50;;;20.00;97.20;;;;;;5061696;28;20587;-55
2022/09/22 12:10:00;;;;;;;0.60;0.50;;;19.90;97.30;;;;;;5064328;28;20786;-55
2022/09/22 12:12:30;;;;;;;0.50;0.50;;;19.70;97.20;;;;;;5062863;28;20224;-53
2022/09/22 12:15:03;;;;;;;0.40;0.40;;;19.60;97.50;;;;;;5062548;28;20223;-54
2022/09/22 12:17:38;;;;;;;0.57;0.47;;;19.40;97.60;;;;;;5059942;28;20219;-52
2022/09/22 12:20:20;;;;;;;0.47;0.47;;;19.60;97.80;;;;;;5067779;28;20258;-54
2022/09/22 12:23:08;;;;;;;0.43;0.43;;;19.80;97.70;;;;;;5066619;28;20216;-55
2022/09/22 12:25:46;;;;;;;0.98;0.60;;;19.80;97.50;;;;;;5066302;28;20178;-52
2022/09/22 12:28:19;;;;;;;1.17;0.50;;;19.60;97.50;;;;;;5067443;28;20300;-54
2022/09/22 12:31:01;;;;;;;0.50;0.50;;;19.40;97.50;;;;;;5068618;28;20270;-55
2022/09/22 12:33:28;;;;;;;0.40;0.40;;;19.50;97.60;;;;;;5064289;28;20298;-53
2022/09/22 12:35:58;;;;;;;0.40;0.40;;;19.40;97.50;;;;;;5069052;28;20232;-52
2022/09/22 12:38:25;;;;;;;0.82;0.40;;;19.40;97.50;;;;;;5067077;28;20259;-54
2022/09/22 12:40:57;;;;;;;0.40;0.40;;;19.30;97.50;;;;;;5066154;28;20254;-53
2022/09/22 12:43:24;;;;;;;0.35;0.35;;;19.20;97.50;;;;;;5067245;28;20221;-53
2022/09/22 12:45:55;;;;;;;2.78;2.58;;;19.10;97.50;;;;;;5068143;28;20631;-55
2022/09/22 12:48:25;;;;;;;3.95;2.97;;;19.00;97.50;;;;;;5064890;28;20276;-51
2022/09/22 12:50:59;;;;;;;2.92;2.38;;;19.00;97.50;;;;;;5063356;28;20193;-53
2022/09/22 12:53:28;;;;;;;2.15;2.00;;;19.10;97.40;;;;;;5065876;28;20350;-54
2022/09/22 12:55:56;;;;;;;1.80;1.70;;;19.20;97.40;;;;;;5064625;28;20328;-49
2022/09/22 12:58:42;;;;;;;1.35;1.25;;;19.20;97.20;;;;;;5063466;28;20197;-52
2022/09/22 13:01:35;;;;;;;1.00;1.00;;;19.50;97.20;;;;;;5056057;28;20254;-53
2022/09/22 13:04:13;;;;;;;0.93;0.90;;;19.90;96.70;;;;;;5061710;28;20709;-49
2022/09/22 13:06:55;;;;;;;1.30;1.20;;;20.00;96.20;;;;;;5063521;28;20629;-54
2022/09/22 13:09:25;;;;;;;1.40;1.30;;;19.90;96.10;;;;;;5065338;28;20686;-52
2022/09/22 13:12:24;;;;;;;1.30;1.20;;;19.70;96.20;;;;;;5061644;28;20693;-48
2022/09/22 13:15:22;;;;;;;2.20;2.00;;;19.50;96.30;;;;;;5043511;28;20222;-55
2022/09/22 13:17:51;;;;;;;3.17;2.83;;;19.40;96.40;;;;;;5061741;28;20771;-52
2022/09/22 13:20:25;;;;;;;2.92;2.72;;;19.20;96.40;;;;;;5070095;28;20556;-54
2022/09/22 13:22:55;;;;;;;2.42;2.22;;;19.00;96.50;;;;;;5062928;28;20649;-54
2022/09/22 13:25:27;;;;;;;1.70;1.58;;;18.90;96.80;;;;;;5067922;28;20197;-53
2022/09/22 13:28:13;;;;;;;1.30;1.23;;;18.80;96.50;;;;;;5069156;28;20189;-53